createdAt,value
2022-10-13T00:00:29.192Z,8.87
2022-10-13T00:02:55.598Z,6.77
2022-10-13T00:05:21.969Z,11.70
2022-10-13T00:07:48.288Z,10.60
2022-10-13T00:10:14.746Z,10.63
2022-10-13T00:12:41.120Z,10.60
2022-10-13T00:15:08.522Z,7.10
2022-10-13T00:17:36.460Z,8.33
2022-10-13T00:20:06.447Z,10.57
2022-10-13T00:22:32.961Z,7.77
2022-10-13T00:24:59.621Z,11.83
2022-10-13T00:27:25.993Z,7.40
2022-10-13T00:29:52.402Z,8.07
2022-10-13T00:32:19.238Z,8.07
2022-10-13T00:34:45.959Z,9.67
2022-10-13T00:37:12.381Z,9.10
2022-10-13T00:39:38.761Z,11.27
2022-10-13T00:42:07.097Z,12.10
2022-10-13T00:45:18.044Z,8.23
2022-10-13T00:47:49.262Z,8.50
2022-10-13T00:50:20.781Z,10.30
2022-10-13T00:52:48.411Z,9.33
2022-10-13T00:55:19.820Z,5.83
2022-10-13T00:57:55.109Z,5.27
2022-10-13T01:00:23.096Z,4.53
2022-10-13T01:02:49.496Z,6.80
2022-10-13T01:05:16.853Z,9.70
2022-10-13T01:07:44.694Z,11.17
2022-10-13T01:10:11.058Z,4.97
2022-10-13T01:12:50.617Z,9.80
2022-10-13T01:15:23.158Z,9.83
2022-10-13T01:18:18.516Z,6.77
2022-10-13T01:20:50.669Z,7.37
2022-10-13T01:23:45.514Z,5.50
2022-10-13T01:26:21.725Z,10.37
2022-10-13T01:29:03.582Z,7.10
2022-10-13T01:31:41.534Z,7.23
2022-10-13T01:34:20.609Z,10.27
2022-10-13T01:36:58.975Z,13.00
2022-10-13T01:39:37.243Z,6.50
2022-10-13T01:42:13.454Z,6.03
2022-10-13T01:44:53.121Z,10.33
2022-10-13T01:47:21.456Z,6.23
2022-10-13T01:49:50.349Z,9.10
2022-10-13T01:52:20.503Z,13.77
2022-10-13T01:54:54.723Z,8.50
2022-10-13T01:57:36.962Z,10.13
2022-10-13T02:00:10.980Z,6.83
2022-10-13T02:02:46.041Z,9.30
2022-10-13T02:05:37.931Z,7.23
2022-10-13T02:08:25.451Z,8.37
2022-10-13T02:10:56.556Z,13.43
2022-10-13T02:13:26.108Z,9.70
2022-10-13T02:15:57.679Z,5.77
2022-10-13T02:18:37.012Z,9.37
2022-10-13T02:21:04.271Z,13.63
2022-10-13T02:23:31.464Z,11.30
2022-10-13T02:25:59.554Z,9.47
2022-10-13T02:28:27.960Z,7.17
2022-10-13T02:30:54.429Z,11.10
2022-10-13T02:33:21.425Z,10.83
2022-10-13T02:35:47.745Z,5.80
2022-10-13T02:38:14.127Z,16.07
2022-10-13T02:40:40.645Z,8.93
2022-10-13T02:43:07.211Z,7.30
2022-10-13T02:45:33.558Z,8.53
2022-10-13T02:48:00.027Z,8.50
2022-10-13T02:50:26.371Z,9.47
2022-10-13T02:52:52.812Z,10.63
2022-10-13T02:55:19.140Z,12.13
2022-10-13T02:57:45.850Z,10.80
2022-10-13T03:00:12.938Z,9.03
2022-10-13T03:02:39.291Z,14.87
2022-10-13T03:05:05.763Z,12.90
2022-10-13T03:07:32.203Z,12.77
2022-10-13T03:09:58.836Z,7.43
2022-10-13T03:12:25.206Z,13.53
2022-10-13T03:14:51.530Z,7.87
2022-10-13T03:17:18.104Z,7.20
2022-10-13T03:19:44.423Z,9.20
2022-10-13T03:22:14.465Z,8.07
2022-10-13T03:24:41.663Z,14.07
2022-10-13T03:27:08.084Z,9.50
2022-10-13T03:29:34.456Z,10.87
2022-10-13T03:32:00.781Z,9.73
2022-10-13T03:34:27.157Z,16.37
2022-10-13T03:36:53.479Z,10.70
2022-10-13T03:39:20.113Z,6.60
2022-10-13T03:41:46.500Z,13.67
2022-10-13T03:44:13.339Z,13.93
2022-10-13T03:46:39.870Z,11.53
2022-10-13T03:49:06.558Z,8.83
2022-10-13T03:51:33.301Z,12.60
2022-10-13T03:53:59.694Z,16.10
2022-10-13T03:56:27.603Z,11.53
2022-10-13T03:58:57.489Z,13.70
2022-10-13T04:01:27.235Z,9.50
2022-10-13T04:03:55.607Z,11.10
2022-10-13T04:06:23.156Z,12.10
2022-10-13T04:08:50.137Z,15.80
2022-10-13T04:11:16.833Z,10.70
2022-10-13T04:13:44.304Z,14.30
2022-10-13T04:16:15.774Z,13.20
2022-10-13T04:18:44.735Z,16.40
2022-10-13T04:21:14.679Z,9.37
2022-10-13T04:23:41.262Z,9.60
2022-10-13T04:26:15.431Z,8.97
2022-10-13T04:28:41.863Z,11.30
2022-10-13T04:31:08.245Z,12.53
2022-10-13T04:33:34.613Z,9.33
2022-10-13T04:36:07.063Z,9.07
2022-10-13T04:38:33.733Z,9.67
2022-10-13T04:41:03.525Z,14.40
2022-10-13T04:43:30.414Z,15.63
2022-10-13T04:46:04.453Z,13.70
2022-10-13T04:48:31.750Z,10.17
2022-10-13T04:51:02.984Z,14.33
2022-10-13T04:53:29.860Z,11.40
2022-10-13T04:55:56.890Z,12.87
2022-10-13T04:58:23.336Z,11.57
2022-10-13T05:00:50.028Z,14.33
2022-10-13T05:03:16.941Z,14.30
2022-10-13T05:05:43.392Z,9.43
2022-10-13T05:08:09.748Z,16.77
2022-10-13T05:10:36.127Z,12.17
2022-10-13T05:13:03.021Z,8.80
2022-10-13T05:15:29.343Z,15.00
2022-10-13T05:17:55.714Z,16.37
2022-10-13T05:20:22.044Z,16.80
2022-10-13T05:22:48.497Z,14.20
2022-10-13T05:25:14.904Z,12.77
2022-10-13T05:27:41.306Z,15.70
2022-10-13T05:30:08.584Z,14.43
2022-10-13T05:32:35.981Z,12.13
2022-10-13T05:35:02.338Z,13.30
2022-10-13T05:37:28.697Z,17.33
2022-10-13T05:39:55.016Z,13.30
2022-10-13T05:42:21.828Z,11.90
2022-10-13T05:44:48.436Z,18.60
2022-10-13T05:47:15.193Z,15.43
2022-10-13T05:49:41.615Z,17.20
2022-10-13T05:52:12.293Z,12.60
2022-10-13T05:54:43.538Z,10.80
2022-10-13T05:57:13.273Z,13.73
2022-10-13T05:59:45.207Z,13.87
2022-10-13T06:02:15.161Z,11.27
2022-10-13T06:04:46.228Z,17.53
2022-10-13T06:07:13.071Z,13.27
2022-10-13T06:09:40.373Z,12.17
2022-10-13T06:12:08.644Z,15.60
2022-10-13T06:14:35.082Z,10.93
2022-10-13T06:17:01.479Z,13.80
2022-10-13T06:19:28.195Z,20.63
2022-10-13T06:21:54.943Z,19.60
2022-10-13T06:24:21.267Z,12.53
2022-10-13T06:26:47.643Z,16.03
2022-10-13T06:29:14.114Z,13.50
2022-10-13T06:31:40.468Z,15.83
2022-10-13T06:34:07.457Z,13.43
2022-10-13T06:36:33.790Z,17.13
2022-10-13T06:39:00.143Z,21.67
2022-10-13T06:41:26.476Z,16.20
2022-10-13T06:43:52.904Z,15.70
2022-10-13T06:46:19.236Z,15.73
2022-10-13T06:48:45.600Z,14.67
2022-10-13T06:51:12.148Z,16.70
2022-10-13T06:53:38.503Z,14.10
2022-10-13T06:56:06.844Z,21.33
2022-10-13T06:58:35.054Z,18.40
2022-10-13T07:01:01.676Z,15.20
2022-10-13T07:03:28.595Z,16.67
2022-10-13T07:05:55.160Z,16.27
2022-10-13T07:08:21.527Z,14.37
2022-10-13T07:10:48.668Z,22.00
2022-10-13T07:13:15.536Z,14.60
2022-10-13T07:15:41.956Z,14.80
2022-10-13T07:18:08.320Z,21.53
2022-10-13T07:20:34.941Z,16.77
2022-10-13T07:23:02.343Z,17.30
2022-10-13T07:25:28.865Z,16.47
2022-10-13T07:27:55.542Z,19.60
2022-10-13T07:30:22.351Z,21.93
2022-10-13T07:32:48.854Z,25.50
2022-10-13T07:35:15.488Z,16.60
2022-10-13T07:37:41.963Z,15.53
2022-10-13T07:40:08.816Z,18.80
2022-10-13T07:42:35.575Z,18.30
2022-10-13T07:45:01.904Z,17.17
2022-10-13T07:47:28.937Z,20.03
2022-10-13T07:49:55.714Z,19.67
2022-10-13T07:52:22.591Z,15.43
2022-10-13T07:54:50.292Z,22.07
2022-10-13T07:57:16.727Z,20.40
2022-10-13T07:59:43.057Z,18.17
2022-10-13T08:02:10.590Z,14.90
2022-10-13T08:04:37.697Z,17.83
2022-10-13T08:07:05.739Z,16.97
2022-10-13T08:09:32.326Z,18.47
2022-10-13T08:12:01.619Z,23.67
2022-10-13T08:14:29.009Z,18.03
2022-10-13T08:16:55.783Z,22.00
2022-10-13T08:19:23.006Z,18.70
2022-10-13T08:21:58.259Z,19.40
2022-10-13T08:24:26.692Z,21.57
2022-10-13T08:26:53.450Z,19.93
2022-10-13T08:29:23.110Z,20.23
2022-10-13T08:31:51.814Z,18.87
2022-10-13T08:34:18.581Z,14.50
2022-10-13T08:36:44.995Z,21.47
2022-10-13T08:39:11.436Z,20.83
2022-10-13T08:41:40.488Z,25.03
2022-10-13T08:47:15.707Z,21.90
2022-10-13T08:49:43.430Z,19.13
2022-10-13T08:52:18.634Z,23.33
2022-10-13T08:54:45.333Z,19.50
2022-10-13T08:57:11.773Z,19.57
2022-10-13T08:59:38.216Z,23.33
2022-10-13T09:02:23.776Z,20.67
2022-10-13T09:04:52.736Z,25.60
2022-10-13T09:07:23.054Z,17.40
2022-10-13T09:09:52.314Z,25.03
2022-10-13T09:12:24.062Z,21.03
2022-10-13T09:15:06.318Z,25.17
2022-10-13T09:17:34.746Z,25.43
2022-10-13T09:20:20.377Z,20.27
2022-10-13T09:23:02.197Z,19.37
2022-10-13T09:25:29.683Z,23.13
2022-10-13T09:27:58.801Z,21.37
2022-10-13T09:30:38.097Z,19.40
2022-10-13T09:33:13.628Z,21.83
2022-10-13T09:35:48.338Z,21.03
2022-10-13T09:38:20.706Z,24.87
2022-10-13T09:41:13.795Z,19.30
2022-10-13T09:43:44.775Z,20.30
2022-10-13T09:46:21.038Z,25.03
2022-10-13T09:48:50.628Z,21.43
2022-10-13T09:51:32.265Z,20.23
2022-10-13T09:53:58.639Z,20.43
2022-10-13T09:56:43.589Z,24.23
2022-10-13T09:59:33.417Z,22.93
2022-10-13T10:02:17.562Z,19.47
2022-10-13T10:04:46.745Z,23.10
2022-10-13T10:07:18.507Z,20.60
2022-10-13T10:09:48.526Z,21.47
2022-10-13T10:12:24.248Z,19.07
2022-10-13T10:14:54.204Z,33.70
2022-10-13T10:17:33.433Z,18.40
2022-10-13T10:20:14.792Z,20.17
2022-10-13T10:23:13.492Z,22.93
2022-10-13T10:25:45.353Z,19.07
2022-10-13T10:28:49.410Z,17.70
2022-10-13T10:31:55.445Z,21.70
2022-10-13T10:34:28.137Z,25.13
2022-10-13T10:37:25.582Z,22.10
2022-10-13T10:40:10.883Z,17.97
2022-10-13T10:42:52.133Z,19.80
2022-10-13T10:45:24.720Z,19.57
2022-10-13T10:47:56.751Z,19.20
2022-10-13T10:50:24.109Z,20.57
2022-10-13T10:52:56.636Z,24.17
2022-10-13T10:55:31.166Z,17.90
2022-10-13T10:58:07.023Z,19.57
2022-10-13T11:00:45.456Z,20.40
2022-10-13T11:03:40.361Z,19.80
2022-10-13T11:06:12.860Z,17.43
2022-10-13T11:08:42.543Z,19.83
2022-10-13T11:11:32.300Z,23.03
2022-10-13T11:14:23.159Z,20.07
2022-10-13T11:17:10.153Z,16.33
2022-10-13T11:19:38.572Z,15.70
2022-10-13T11:22:05.472Z,22.33
2022-10-13T11:24:34.877Z,17.10
2022-10-13T11:27:16.790Z,14.73
2022-10-13T11:29:49.082Z,24.23
2022-10-13T11:32:27.692Z,21.17
2022-10-13T11:34:57.782Z,16.80
2022-10-13T11:37:28.625Z,18.87
2022-10-13T11:40:15.653Z,14.57
2022-10-13T11:43:18.215Z,16.67
2022-10-13T11:45:56.624Z,18.00
2022-10-13T11:48:44.621Z,21.67
2022-10-13T11:51:33.662Z,23.00
2022-10-13T11:54:19.171Z,19.77
2022-10-13T11:56:48.610Z,19.87
2022-10-13T11:59:28.100Z,19.57
2022-10-13T12:02:12.378Z,20.83
2022-10-13T12:04:46.327Z,19.93
2022-10-13T12:07:16.292Z,23.60
2022-10-13T12:09:51.467Z,20.10
2022-10-13T12:12:21.390Z,20.67
2022-10-13T12:14:53.751Z,21.93
2022-10-13T12:17:30.384Z,18.90
2022-10-13T12:19:59.553Z,18.97
2022-10-13T12:22:26.843Z,21.97
2022-10-13T12:25:05.196Z,16.70
2022-10-13T12:27:40.062Z,21.23
2022-10-13T12:30:27.551Z,19.97
2022-10-13T12:32:57.184Z,26.10
2022-10-13T12:35:29.523Z,19.30
2022-10-13T12:37:58.363Z,19.70
2022-10-13T12:40:25.203Z,16.87
2022-10-13T12:42:51.787Z,18.57
2022-10-13T12:45:20.865Z,18.30
2022-10-13T12:47:52.859Z,26.10
2022-10-13T12:50:25.284Z,18.43
2022-10-13T12:53:15.407Z,21.50
2022-10-13T12:56:00.469Z,23.63
2022-10-13T12:58:33.817Z,21.50
2022-10-13T13:01:14.123Z,19.57
2022-10-13T13:03:42.760Z,18.07
2022-10-13T13:06:20.554Z,20.53
2022-10-13T13:08:46.978Z,25.90
2022-10-13T13:11:37.779Z,16.10
2022-10-13T13:14:22.606Z,20.13
2022-10-13T13:17:13.350Z,19.67
2022-10-13T13:19:42.666Z,24.23
2022-10-13T13:22:09.309Z,20.90
2022-10-13T13:24:40.237Z,18.03
2022-10-13T13:27:26.984Z,16.00
2022-10-13T13:29:55.349Z,17.40
2022-10-13T13:32:24.369Z,24.60
2022-10-13T13:34:50.930Z,23.57
2022-10-13T13:37:50.886Z,18.43
2022-10-13T13:40:23.075Z,19.27
2022-10-13T13:42:49.640Z,20.57
2022-10-13T13:45:18.309Z,18.27
2022-10-13T13:47:45.628Z,26.70
2022-10-13T13:50:27.380Z,17.20
2022-10-13T13:52:53.821Z,18.27
2022-10-13T13:55:20.163Z,25.80
2022-10-13T13:57:46.904Z,22.17
2022-10-13T14:00:15.323Z,22.60
2022-10-13T14:02:43.669Z,19.90
2022-10-13T14:05:11.278Z,17.43
2022-10-13T14:07:37.655Z,21.93
2022-10-13T14:10:05.312Z,24.70
2022-10-13T14:12:32.538Z,18.83
2022-10-13T14:14:58.873Z,23.67
2022-10-13T14:17:28.583Z,25.33
2022-10-13T14:19:55.064Z,19.30
2022-10-13T14:22:22.528Z,17.23
2022-10-13T14:24:49.146Z,18.30
2022-10-13T14:27:15.530Z,21.03
2022-10-13T14:29:41.951Z,18.40
2022-10-13T14:32:08.299Z,18.70
2022-10-13T14:34:34.626Z,23.33
2022-10-13T14:37:00.964Z,23.00
2022-10-13T14:39:27.319Z,19.90
2022-10-13T14:41:53.680Z,15.20
2022-10-13T14:44:20.044Z,22.40
2022-10-13T14:46:46.387Z,18.77
2022-10-13T14:49:12.872Z,20.33
2022-10-13T14:51:39.303Z,17.50
2022-10-13T14:54:06.928Z,22.70
2022-10-13T14:56:33.833Z,18.47
2022-10-13T14:59:01.519Z,18.13
2022-10-13T15:01:27.901Z,19.87
2022-10-13T15:03:54.643Z,16.33
2022-10-13T15:06:23.728Z,16.63
2022-10-13T15:08:50.588Z,18.53
2022-10-13T15:11:19.130Z,19.67
2022-10-13T15:13:46.046Z,13.00
2022-10-13T15:16:16.723Z,15.73
2022-10-13T15:18:43.841Z,20.57
2022-10-13T15:21:10.206Z,19.10
2022-10-13T15:23:36.679Z,21.13
2022-10-13T15:26:03.834Z,16.37
2022-10-13T15:28:36.145Z,16.00
2022-10-13T15:31:04.519Z,17.47
2022-10-13T15:33:31.865Z,18.80
2022-10-13T15:35:58.355Z,15.57
2022-10-13T15:38:25.115Z,15.57
2022-10-13T15:40:51.440Z,17.27
2022-10-13T15:43:18.418Z,11.90
2022-10-13T15:45:55.445Z,19.00
2022-10-13T15:48:22.227Z,18.00
2022-10-13T15:50:48.586Z,12.60
2022-10-13T15:53:14.947Z,13.03
2022-10-13T15:55:41.277Z,19.37
2022-10-13T15:58:11.364Z,13.67
2022-10-13T16:00:40.624Z,16.50
2022-10-13T16:03:07.384Z,18.53
2022-10-13T16:05:33.797Z,14.83
2022-10-13T16:08:00.170Z,17.57
2022-10-13T16:10:26.511Z,17.37
2022-10-13T16:12:52.872Z,19.60
2022-10-13T16:15:19.963Z,15.00
2022-10-13T16:17:46.514Z,16.63
2022-10-13T16:20:12.885Z,14.23
2022-10-13T16:22:39.258Z,13.40
2022-10-13T16:25:06.128Z,15.53
2022-10-13T16:27:32.507Z,17.17
2022-10-13T16:29:59.259Z,14.83
2022-10-13T16:32:25.579Z,11.77
2022-10-13T16:34:52.289Z,14.90
2022-10-13T16:37:19.727Z,21.27
2022-10-13T16:39:51.205Z,16.73
2022-10-13T16:42:18.204Z,12.43
2022-10-13T16:44:44.556Z,13.97
2022-10-13T16:47:13.648Z,14.87
2022-10-13T16:49:43.819Z,13.70
2022-10-13T16:52:10.281Z,16.23
2022-10-13T16:54:36.630Z,16.53
2022-10-13T16:57:03.067Z,15.90
2022-10-13T16:59:29.480Z,15.27
2022-10-13T17:01:57.798Z,18.00
2022-10-13T17:04:24.419Z,16.43
2022-10-13T17:06:50.853Z,14.97
2022-10-13T17:09:17.224Z,15.07
2022-10-13T17:11:44.372Z,20.27
2022-10-13T17:14:10.863Z,18.10
2022-10-13T17:16:37.273Z,14.37
2022-10-13T17:19:03.916Z,18.60
2022-10-13T17:21:30.305Z,17.10
2022-10-13T17:23:57.238Z,22.73
2022-10-13T17:26:23.970Z,19.73
2022-10-13T17:28:50.721Z,21.40
2022-10-13T17:31:20.256Z,22.63
2022-10-13T17:33:47.337Z,22.17
2022-10-13T17:36:26.284Z,21.07
2022-10-13T17:38:55.091Z,23.90
2022-10-13T17:41:22.684Z,26.47
2022-10-13T17:43:51.162Z,22.93
2022-10-13T17:46:42.592Z,32.87
2022-10-13T17:49:11.243Z,23.20
2022-10-13T17:51:38.242Z,26.50
2022-10-13T17:54:05.008Z,31.30
2022-10-13T17:56:31.715Z,29.80
2022-10-13T17:59:00.239Z,30.37
2022-10-13T18:01:29.888Z,34.03
2022-10-13T18:03:58.693Z,33.50
2022-10-13T18:06:25.395Z,32.90
2022-10-13T18:08:51.908Z,36.53
2022-10-13T18:11:20.654Z,37.80
2022-10-13T18:13:47.477Z,44.73
2022-10-13T18:16:20.537Z,32.40
2022-10-13T18:18:47.902Z,38.33
2022-10-13T18:21:16.816Z,32.87
2022-10-13T18:23:43.904Z,35.13
2022-10-13T18:26:14.128Z,30.47
2022-10-13T18:28:43.482Z,32.60
2022-10-13T18:31:12.581Z,33.53
2022-10-13T18:33:39.681Z,28.73
2022-10-13T18:36:20.425Z,33.40
2022-10-13T18:38:47.399Z,25.70
2022-10-13T18:41:14.981Z,31.77
2022-10-13T18:43:41.419Z,26.00
2022-10-13T18:46:07.929Z,24.77
2022-10-13T18:48:35.363Z,33.70
2022-10-13T18:51:11.416Z,25.43
2022-10-13T18:53:39.928Z,27.17
2022-10-13T18:56:13.372Z,30.03
2022-10-13T18:58:40.239Z,26.13
2022-10-13T19:01:09.609Z,39.27
2022-10-13T19:03:37.660Z,31.80
2022-10-13T19:06:06.462Z,29.90
2022-10-13T19:08:33.300Z,30.23
2022-10-13T19:10:59.784Z,26.27
2022-10-13T19:13:28.123Z,30.97
2022-10-13T19:16:01.841Z,33.70
2022-10-13T19:18:28.321Z,29.70
2022-10-13T19:20:54.734Z,24.53
2022-10-13T19:23:22.008Z,25.43
2022-10-13T19:25:48.690Z,31.33
2022-10-13T19:28:15.194Z,31.63
2022-10-13T19:30:41.582Z,32.83
2022-10-13T19:33:09.394Z,31.93
2022-10-13T19:35:40.672Z,39.67
2022-10-13T19:38:07.031Z,38.90
2022-10-13T19:40:33.405Z,34.53
2022-10-13T19:42:59.780Z,38.00
2022-10-13T19:45:26.128Z,38.60
2022-10-13T19:47:52.509Z,28.27
2022-10-13T19:50:18.921Z,34.23
2022-10-13T19:52:45.283Z,34.17
2022-10-13T19:55:11.602Z,38.40
2022-10-13T19:57:38.021Z,35.40
2022-10-13T20:00:05.153Z,33.27
2022-10-13T20:02:31.818Z,28.63
2022-10-13T20:04:58.148Z,39.13
2022-10-13T20:07:24.601Z,36.90
2022-10-13T20:09:50.955Z,34.90
2022-10-13T20:12:17.319Z,41.50
2022-10-13T20:14:43.672Z,28.83
2022-10-13T20:17:10.232Z,37.30
2022-10-13T20:19:36.742Z,31.70
2022-10-13T20:22:03.156Z,35.50
2022-10-13T20:24:29.535Z,35.40
2022-10-13T20:26:56.297Z,71.53
2022-10-13T20:29:22.688Z,38.30
2022-10-13T20:31:49.332Z,38.33
2022-10-13T20:34:15.814Z,36.20
2022-10-13T20:36:42.218Z,35.83
2022-10-13T20:39:08.924Z,33.50
2022-10-13T20:41:35.386Z,42.97
2022-10-13T20:44:02.115Z,37.23
2022-10-13T20:46:28.481Z,37.20
2022-10-13T20:49:10.415Z,36.43
2022-10-13T20:51:37.621Z,39.03
2022-10-13T20:54:04.120Z,35.50
2022-10-13T20:56:30.509Z,38.07
2022-10-13T20:58:57.120Z,40.17
2022-10-13T21:01:23.871Z,35.23
2022-10-13T21:03:54.245Z,35.10
2022-10-13T21:06:22.540Z,38.37
2022-10-13T21:08:49.105Z,42.77
2022-10-13T21:11:17.288Z,29.57
2022-10-13T21:13:44.948Z,35.70
2022-10-13T21:16:19.041Z,33.40
2022-10-13T21:18:49.798Z,34.90
2022-10-13T21:21:19.266Z,35.97
2022-10-13T21:23:50.308Z,35.43
2022-10-13T21:26:21.319Z,42.03
2022-10-13T21:28:49.036Z,34.93
2022-10-13T21:31:17.364Z,36.33
2022-10-13T21:33:44.432Z,37.00
2022-10-13T21:36:23.359Z,33.50
2022-10-13T21:38:55.864Z,36.90
2022-10-13T21:41:22.713Z,43.87
2022-10-13T21:43:50.095Z,44.07
2022-10-13T21:46:25.268Z,35.00
2022-10-13T21:48:56.486Z,38.80
2022-10-13T21:51:29.572Z,35.43
2022-10-13T21:54:08.559Z,44.13
2022-10-13T21:56:35.699Z,42.43
2022-10-13T21:59:02.387Z,36.23
2022-10-13T22:01:29.361Z,42.13
2022-10-13T22:03:58.366Z,39.10
2022-10-13T22:06:25.553Z,36.13
2022-10-13T22:08:54.011Z,40.73
2022-10-13T22:11:22.836Z,32.57
2022-10-13T22:13:49.434Z,37.13
2022-10-13T22:16:19.628Z,31.63
2022-10-13T22:18:46.740Z,37.83
2022-10-13T22:21:18.180Z,40.83
2022-10-13T22:23:45.028Z,34.77
2022-10-13T22:26:12.601Z,38.03
2022-10-13T22:28:39.385Z,40.00
2022-10-13T22:31:10.852Z,34.10
2022-10-13T22:33:38.947Z,40.30
2022-10-13T22:36:14.351Z,36.20
2022-10-13T22:38:40.805Z,37.57
2022-10-13T22:41:08.640Z,35.80
2022-10-13T22:43:35.847Z,39.77
2022-10-13T22:46:02.845Z,43.90
2022-10-13T22:48:29.280Z,37.47
2022-10-13T22:50:55.916Z,39.53
2022-10-13T22:53:22.413Z,37.73
2022-10-13T22:55:48.810Z,42.13
2022-10-13T22:58:15.191Z,38.00
2022-10-13T23:00:41.530Z,37.87
2022-10-13T23:03:08.017Z,39.73
2022-10-13T23:05:34.406Z,37.77
2022-10-13T23:08:00.823Z,42.93
2022-10-13T23:10:27.182Z,33.03
2022-10-13T23:12:53.583Z,36.80
2022-10-13T23:15:19.910Z,41.53
2022-10-13T23:17:46.551Z,40.40
2022-10-13T23:20:13.933Z,36.10
2022-10-13T23:22:40.305Z,40.63
2022-10-13T23:25:06.950Z,37.30
2022-10-13T23:27:33.605Z,40.50
2022-10-13T23:29:59.961Z,45.47
2022-10-13T23:32:26.785Z,42.67
2022-10-13T23:34:53.111Z,36.40
2022-10-13T23:37:19.904Z,41.13
2022-10-13T23:39:46.461Z,40.47
2022-10-13T23:42:12.851Z,45.00
2022-10-13T23:44:39.193Z,39.30
2022-10-13T23:47:05.556Z,41.07
2022-10-13T23:49:32.108Z,43.60
2022-10-13T23:51:58.950Z,44.50
2022-10-13T23:54:25.291Z,42.40
2022-10-13T23:56:51.682Z,48.50
2022-10-13T23:59:18.013Z,41.97
